Time;durP1;ratioP1;P1;durP2;ratioP2;P2;SDS_P1;SDS_P2;PMS_P1;PMS_P2;Temp;Humidity;BMP_temperature;BMP_pressure;BME280_temperature;BME280_humidity;BME280_pressure;Samples;Min_cycle;Max_cycle;Signal;HPM_P1;HPM_P2
2022/04/10 00:00:43;;;;;;;8.65;2.03;;;5.90;99.90;;;;;;4919697;29;20048;-78
2022/04/10 00:03:09;;;;;;;16.45;2.53;;;5.90;99.90;;;;;;4919458;29;20048;-78
2022/04/10 00:05:35;;;;;;;11.48;2.40;;;6.00;99.90;;;;;;4902418;29;20052;-77
2022/04/10 00:08:00;;;;;;;16.92;3.60;;;6.00;99.90;;;;;;4919444;29;20043;-78
2022/04/10 00:10:26;;;;;;;12.15;1.88;;;6.00;99.90;;;;;;4919532;29;20103;-78
2022/04/10 00:12:52;;;;;;;5.20;1.67;;;6.00;99.90;;;;;;4902377;29;20107;-78
2022/04/10 00:15:18;;;;;;;5.53;1.42;;;6.00;99.90;;;;;;4919765;29;20058;-78
2022/04/10 00:17:43;;;;;;;7.05;1.27;;;6.00;99.90;;;;;;4918562;29;20062;-78
2022/04/10 00:20:11;;;;;;;9.35;1.67;;;6.00;99.90;;;;;;4919176;29;20036;-78
2022/04/10 00:22:44;;;;;;;9.10;2.35;;;6.00;99.90;;;;;;4919323;29;20059;-78
2022/04/10 00:25:12;;;;;;;10.32;1.83;;;5.90;99.90;;;;;;4902150;29;20056;-78
2022/04/10 00:27:38;;;;;;;8.52;1.83;;;5.90;99.90;;;;;;4919050;29;20583;-78
2022/04/10 00:30:04;;;;;;;13.50;1.90;;;5.90;99.90;;;;;;4919133;29;20048;-78
2022/04/10 00:32:30;;;;;;;12.80;2.60;;;5.90;99.90;;;;;;4902198;29;20127;-77
2022/04/10 00:34:56;;;;;;;9.40;1.42;;;5.80;99.90;;;;;;4919474;29;20123;-78
2022/04/10 00:37:21;;;;;;;8.60;1.60;;;5.80;99.90;;;;;;4919152;29;20478;-78
2022/04/10 00:39:47;;;;;;;12.27;1.92;;;5.80;99.90;;;;;;4902128;29;20052;-77
2022/04/10 00:42:13;;;;;;;12.95;2.60;;;5.90;99.90;;;;;;4918913;29;20439;-78
2022/04/10 00:44:38;;;;;;;4.15;1.20;;;5.80;99.90;;;;;;4902023;29;20399;-78
2022/04/10 00:47:05;;;;;;;11.13;1.75;;;5.80;99.90;;;;;;4901911;29;20056;-78
2022/04/10 00:49:31;;;;;;;7.57;1.17;;;5.80;99.90;;;;;;4901921;29;20044;-78
2022/04/10 00:51:58;;;;;;;10.43;1.85;;;5.80;99.90;;;;;;4918819;29;20056;-77
2022/04/10 00:54:25;;;;;;;16.90;2.13;;;5.80;99.90;;;;;;4918953;29;20488;-79
2022/04/10 00:56:51;;;;;;;13.75;2.03;;;5.80;99.90;;;;;;4902938;29;20052;-80
2022/04/10 00:59:17;;;;;;;8.10;1.77;;;5.80;99.90;;;;;;4925705;29;20032;-79
2022/04/10 01:01:44;;;;;;;8.68;2.15;;;5.80;99.90;;;;;;4925368;29;20048;-78
2022/04/10 01:04:12;;;;;;;10.10;1.55;;;5.80;99.90;;;;;;4925091;29;20052;-78
2022/04/10 01:06:39;;;;;;;10.55;1.80;;;5.80;99.90;;;;;;4907899;29;20059;-78
2022/04/10 01:09:05;;;;;;;5.25;1.67;;;5.80;99.90;;;;;;4907928;29;20056;-78
2022/04/10 01:11:33;;;;;;;14.63;2.25;;;5.80;99.90;;;;;;4907924;29;20055;-78
2022/04/10 01:13:59;;;;;;;16.05;2.67;;;5.80;99.90;;;;;;4924842;29;20456;-78
2022/04/10 01:16:25;;;;;;;3.65;1.00;;;5.70;99.90;;;;;;4924799;29;20051;-78
2022/04/10 01:18:51;;;;;;;8.98;1.88;;;5.80;99.90;;;;;;4925087;29;20399;-78
2022/04/10 01:21:26;;;;;;;9.30;1.40;;;5.80;99.90;;;;;;4908132;29;20052;-78
2022/04/10 01:23:56;;;;;;;5.28;1.65;;;5.80;99.90;;;;;;4924854;29;20051;-78
2022/04/10 01:26:27;;;;;;;6.22;1.80;;;5.80;99.90;;;;;;4907718;29;20040;-78
2022/04/10 01:29:04;;;;;;;7.22;1.52;;;5.80;99.90;;;;;;4907898;29;20448;-78
2022/04/10 01:31:32;;;;;;;11.38;1.88;;;5.80;99.90;;;;;;4907641;29;20052;-78
2022/04/10 01:34:00;;;;;;;10.50;1.40;;;5.90;99.90;;;;;;4924831;29;20048;-78
2022/04/10 01:36:28;;;;;;;8.57;1.63;;;5.80;99.90;;;;;;4924703;29;20492;-78
2022/04/10 01:38:55;;;;;;;4.88;1.00;;;5.80;99.90;;;;;;4908053;29;20415;-78
2022/04/10 01:41:22;;;;;;;12.82;1.95;;;5.80;99.90;;;;;;4924309;29;20492;-78
2022/04/10 01:43:49;;;;;;;8.85;1.33;;;5.80;99.90;;;;;;4924640;29;20052;-78
2022/04/10 01:46:16;;;;;;;7.88;1.20;;;5.90;99.90;;;;;;4924597;29;20048;-78
2022/04/10 01:48:42;;;;;;;10.57;1.42;;;5.90;99.90;;;;;;4907616;29;20122;-78
2022/04/10 01:51:08;;;;;;;3.47;0.93;;;5.80;99.90;;;;;;4907668;29;20131;-78
2022/04/10 01:53:35;;;;;;;7.38;1.20;;;5.90;99.90;;;;;;4907522;29;20051;-78
2022/04/10 01:56:05;;;;;;;10.05;1.73;;;5.90;99.90;;;;;;4924505;29;20048;-78
2022/04/10 01:58:33;;;;;;;5.40;1.17;;;5.90;99.90;;;;;;4907827;29;20500;-78
2022/04/10 02:01:11;;;;;;;4.43;1.05;;;5.80;99.90;;;;;;4907683;29;20090;-78
2022/04/10 02:03:37;;;;;;;2.55;0.70;;;5.90;99.90;;;;;;4924487;29;20472;-78
2022/04/10 02:06:04;;;;;;;11.13;1.05;;;5.80;99.90;;;;;;4924400;29;20044;-78
2022/04/10 02:08:31;;;;;;;9.60;1.13;;;5.90;99.90;;;;;;4923307;29;20083;-78
2022/04/10 02:10:57;;;;;;;15.35;1.50;;;5.80;99.90;;;;;;4889467;29;20040;-78
2022/04/10 02:13:24;;;;;;;13.85;1.38;;;5.90;99.90;;;;;;4904283;29;20131;-78
2022/04/10 02:15:50;;;;;;;8.68;1.42;;;5.90;99.90;;;;;;4921232;29;20051;-78
2022/04/10 02:18:16;;;;;;;11.20;1.58;;;5.80;99.90;;;;;;4904286;29;20040;-78
2022/04/10 02:20:42;;;;;;;5.32;1.10;;;5.80;99.90;;;;;;4921632;29;20044;-78
2022/04/10 02:23:09;;;;;;;10.52;1.98;;;5.80;99.90;;;;;;4921025;29;20487;-78
2022/04/10 02:25:34;;;;;;;7.05;1.35;;;5.70;99.90;;;;;;4921079;29;20053;-78
2022/04/10 02:28:00;;;;;;;8.32;1.10;;;5.70;99.90;;;;;;4904094;29;20063;-78
2022/04/10 02:30:26;;;;;;;10.25;1.70;;;5.80;99.90;;;;;;4921174;29;20040;-79
2022/04/10 02:32:52;;;;;;;7.00;1.23;;;5.70;99.90;;;;;;4920965;29;20376;-78
2022/04/10 02:35:18;;;;;;;11.95;2.15;;;5.70;99.90;;;;;;4920903;29;20511;-76
2022/04/10 02:37:47;;;;;;;8.30;1.23;;;5.70;99.90;;;;;;4920899;29;20056;-77
2022/04/10 02:40:14;;;;;;;5.82;1.13;;;5.70;99.90;;;;;;4920709;29;20142;-78
2022/04/10 02:42:41;;;;;;;3.78;0.60;;;5.70;99.90;;;;;;4920998;29;20044;-79
2022/04/10 02:45:07;;;;;;;4.88;1.10;;;5.70;99.90;;;;;;4904066;29;20119;-78
2022/04/10 02:47:33;;;;;;;7.57;0.93;;;5.70;99.90;;;;;;4921487;29;20048;-78
2022/04/10 02:49:59;;;;;;;5.35;0.95;;;5.70;99.90;;;;;;4903831;29;20051;-78
2022/04/10 02:52:24;;;;;;;7.00;1.60;;;5.70;99.90;;;;;;4903562;29;20051;-78
2022/04/10 02:54:50;;;;;;;1.90;0.65;;;5.80;99.90;;;;;;4921362;29;20503;-80
2022/04/10 02:57:16;;;;;;;4.75;1.13;;;5.70;99.90;;;;;;4921863;29;20059;-80
2022/04/10 02:59:41;;;;;;;5.45;0.88;;;5.70;99.90;;;;;;4920833;29;20083;-79
2022/04/10 03:02:07;;;;;;;6.38;0.70;;;5.70;99.90;;;;;;4921282;29;20396;-77
2022/04/10 03:04:33;;;;;;;6.22;1.05;;;5.70;99.90;;;;;;4920445;29;20056;-78
2022/04/10 03:06:58;;;;;;;9.82;1.20;;;5.70;99.90;;;;;;4919941;29;20046;-78
2022/04/10 03:09:24;;;;;;;8.73;0.88;;;5.70;99.90;;;;;;4920436;29;20111;-78
2022/04/10 03:11:50;;;;;;;3.58;0.75;;;5.70;99.90;;;;;;4903744;29;20072;-80
2022/04/10 03:14:15;;;;;;;6.68;1.88;;;5.70;99.90;;;;;;4922259;29;20044;-80
2022/04/10 03:16:42;;;;;;;3.55;0.93;;;5.70;99.90;;;;;;4921129;29;20062;-80
2022/04/10 03:19:08;;;;;;;11.63;1.48;;;5.60;99.90;;;;;;4920761;29;20087;-80
2022/04/10 03:21:34;;;;;;;5.25;2.08;;;5.60;99.90;;;;;;4919392;29;20463;-79
2022/04/10 03:24:01;;;;;;;6.28;1.33;;;5.70;99.90;;;;;;4920602;29;20059;-80
2022/04/10 03:26:27;;;;;;;8.95;1.40;;;5.70;99.90;;;;;;4920444;29;20056;-79
2022/04/10 03:28:53;;;;;;;5.72;0.95;;;5.80;99.90;;;;;;4920650;29;20036;-79
2022/04/10 03:31:20;;;;;;;6.28;1.10;;;5.70;99.90;;;;;;4903798;29;20051;-79
2022/04/10 03:33:46;;;;;;;12.23;1.77;;;5.70;99.90;;;;;;4920351;29;20047;-80
2022/04/10 03:36:12;;;;;;;9.23;1.38;;;5.60;99.90;;;;;;4903294;29;20120;-79
2022/04/10 03:38:39;;;;;;;6.00;1.15;;;5.50;99.90;;;;;;4921919;29;20060;-80
2022/04/10 03:41:05;;;;;;;3.25;0.75;;;5.40;99.90;;;;;;4903393;29;20059;-80
2022/04/10 03:43:32;;;;;;;9.07;1.38;;;5.40;99.90;;;;;;4903424;29;20426;-80
2022/04/10 03:46:01;;;;;;;9.07;1.40;;;5.30;99.90;;;;;;4903380;29;20048;-79
2022/04/10 03:48:28;;;;;;;8.20;1.00;;;5.20;99.90;;;;;;4921016;29;20079;-80
2022/04/10 03:50:54;;;;;;;7.97;1.17;;;5.10;99.90;;;;;;4919945;29;20487;-80
2022/04/10 03:53:19;;;;;;;8.93;1.40;;;5.10;99.90;;;;;;4920156;29;20080;-79
2022/04/10 03:55:45;;;;;;;5.55;1.05;;;5.10;99.90;;;;;;4902891;29;20056;-79
2022/04/10 03:58:11;;;;;;;5.75;1.20;;;5.10;99.90;;;;;;4920071;29;20117;-80
2022/04/10 04:00:36;;;;;;;4.43;1.27;;;5.10;99.90;;;;;;4920671;29;20048;-80
2022/04/10 04:03:02;;;;;;;8.43;1.15;;;5.10;99.90;;;;;;4919697;29;20051;-80
2022/04/10 04:05:28;;;;;;;7.45;0.98;;;5.10;99.90;;;;;;4903680;29;20044;-80
2022/04/10 04:07:54;;;;;;;7.57;1.20;;;5.10;99.90;;;;;;4904288;29;20106;-80
2022/04/10 04:10:20;;;;;;;9.10;2.15;;;5.10;99.90;;;;;;4921402;29;20088;-80
2022/04/10 04:12:45;;;;;;;7.13;0.90;;;5.10;99.90;;;;;;4920206;29;20036;-80
2022/04/10 04:15:11;;;;;;;9.15;0.98;;;5.20;99.90;;;;;;4903585;29;20055;-80
2022/04/10 04:17:38;;;;;;;9.35;2.88;;;5.10;99.90;;;;;;4919905;29;20044;-80
2022/04/10 04:20:07;;;;;;;10.95;1.35;;;5.20;99.90;;;;;;4903353;29;20044;-80
2022/04/10 04:22:36;;;;;;;4.30;0.60;;;5.20;99.90;;;;;;4902536;29;20056;-80
2022/04/10 04:25:03;;;;;;;6.70;1.17;;;5.20;99.90;;;;;;4902645;29;20483;-80
2022/04/10 04:27:29;;;;;;;6.38;1.08;;;5.30;99.90;;;;;;4919409;29;20099;-80
2022/04/10 04:29:55;;;;;;;6.63;2.50;;;5.30;99.90;;;;;;4919576;29;20044;-80
2022/04/10 04:32:20;;;;;;;8.43;1.63;;;5.20;99.90;;;;;;4919106;29;20095;-80
2022/04/10 04:34:49;;;;;;;5.45;1.10;;;5.20;99.90;;;;;;4902607;29;20131;-80
2022/04/10 04:37:15;;;;;;;4.47;0.80;;;5.30;99.90;;;;;;4919371;29;20079;-80
2022/04/10 04:39:40;;;;;;;8.20;1.38;;;5.30;99.90;;;;;;4902065;29;20463;-80
2022/04/10 04:42:07;;;;;;;5.10;0.90;;;5.30;99.90;;;;;;4918914;29;20136;-80
2022/04/10 04:44:32;;;;;;;8.88;1.00;;;5.30;99.90;;;;;;4918027;29;20054;-79
2022/04/10 04:46:59;;;;;;;4.78;1.20;;;5.30;99.90;;;;;;4918972;29;20052;-79
2022/04/10 04:49:25;;;;;;;9.80;1.30;;;5.30;99.90;;;;;;4901828;29;20052;-79
2022/04/10 04:51:51;;;;;;;7.97;0.90;;;5.30;99.90;;;;;;4902378;29;20056;-79
2022/04/10 04:54:17;;;;;;;10.93;1.27;;;5.30;99.90;;;;;;4919261;29;20048;-80
2022/04/10 04:56:42;;;;;;;9.07;1.05;;;5.30;99.90;;;;;;4901799;29;20064;-80
2022/04/10 04:59:08;;;;;;;5.00;1.27;;;5.40;99.90;;;;;;4901844;29;20118;-79
2022/04/10 05:01:34;;;;;;;8.80;1.35;;;5.40;99.90;;;;;;4918902;29;20048;-79
2022/04/10 05:04:00;;;;;;;10.98;2.65;;;5.40;99.90;;;;;;4901793;29;20514;-80
2022/04/10 05:06:25;;;;;;;3.95;1.10;;;5.40;99.90;;;;;;4901504;29;20493;-79
2022/04/10 05:08:51;;;;;;;7.70;2.15;;;5.40;99.90;;;;;;4901701;29;20192;-79
2022/04/10 05:11:17;;;;;;;9.35;1.50;;;5.40;99.90;;;;;;4902055;29;20070;-79
2022/04/10 05:13:43;;;;;;;8.32;1.77;;;5.30;99.90;;;;;;4918650;29;20490;-79
2022/04/10 05:16:09;;;;;;;11.30;1.60;;;5.20;99.90;;;;;;4918718;29;20052;-79
2022/04/10 05:18:35;;;;;;;9.43;2.75;;;5.20;99.90;;;;;;4918928;29;20130;-80
2022/04/10 05:21:01;;;;;;;15.32;2.67;;;5.20;99.90;;;;;;4918809;29;20050;-80
2022/04/10 05:23:27;;;;;;;4.53;1.67;;;5.10;99.90;;;;;;4918819;29;20048;-80
2022/04/10 05:25:53;;;;;;;9.88;2.05;;;5.10;99.90;;;;;;4918779;29;20044;-80
2022/04/10 05:28:19;;;;;;;7.45;1.25;;;5.10;99.90;;;;;;4918845;29;20103;-80
2022/04/10 05:30:44;;;;;;;5.88;1.65;;;5.10;99.90;;;;;;4918716;29;20396;-80
2022/04/10 05:33:11;;;;;;;6.57;1.20;;;5.10;99.90;;;;;;4901962;29;20432;-80
2022/04/10 05:35:37;;;;;;;10.75;1.75;;;5.10;99.90;;;;;;4918316;29;20072;-80
2022/04/10 05:38:03;;;;;;;6.25;2.05;;;5.00;99.90;;;;;;4918628;29;20092;-79
2022/04/10 05:40:29;;;;;;;8.85;1.40;;;5.00;99.90;;;;;;4900997;29;20056;-80
2022/04/10 05:42:55;;;;;;;6.70;2.00;;;5.00;99.90;;;;;;4918236;29;20115;-79
2022/04/10 05:45:21;;;;;;;9.52;1.70;;;4.90;99.90;;;;;;4903983;29;20055;-80
2022/04/10 05:47:46;;;;;;;10.00;1.67;;;4.90;99.90;;;;;;4922021;29;20048;-80
2022/04/10 05:50:13;;;;;;;4.32;0.88;;;4.90;99.90;;;;;;4922090;29;20051;-80
2022/04/10 05:52:45;;;;;;;11.18;1.40;;;4.80;99.90;;;;;;4904605;29;20060;-80
2022/04/10 05:55:17;;;;;;;7.55;1.58;;;4.90;99.90;;;;;;4920120;29;20044;-82
2022/04/10 05:57:44;;;;;;;7.85;1.88;;;4.80;99.90;;;;;;4921161;29;20052;-83
2022/04/10 06:00:12;;;;;;;7.90;1.00;;;4.80;99.90;;;;;;4904712;29;20133;-82
2022/04/10 06:02:39;;;;;;;5.45;1.20;;;4.80;99.90;;;;;;4921595;29;20407;-82
2022/04/10 06:05:05;;;;;;;3.80;1.10;;;4.80;99.90;;;;;;4921253;29;20048;-82
2022/04/10 06:07:31;;;;;;;5.68;1.17;;;4.90;99.90;;;;;;4921207;29;20187;-81
2022/04/10 06:09:58;;;;;;;17.92;2.15;;;5.00;99.90;;;;;;4921858;29;20512;-81
2022/04/10 06:12:25;;;;;;;9.05;1.55;;;5.00;99.90;;;;;;4921893;29;20044;-81
2022/04/10 06:14:50;;;;;;;8.07;1.52;;;5.10;99.90;;;;;;4904484;29;20044;-81
2022/04/10 06:17:16;;;;;;;9.68;1.70;;;5.30;99.90;;;;;;4920657;29;20115;-81
2022/04/10 06:19:42;;;;;;;9.63;1.70;;;5.30;99.90;;;;;;4921626;29;20476;-81
2022/04/10 06:22:08;;;;;;;7.15;1.85;;;5.50;99.90;;;;;;4904612;29;20051;-81
2022/04/10 06:24:37;;;;;;;6.97;1.42;;;5.60;99.90;;;;;;4903124;29;20115;-82
2022/04/10 06:27:04;;;;;;;13.57;1.67;;;5.70;99.90;;;;;;4920646;29;20055;-81
2022/04/10 06:29:29;;;;;;;9.27;1.98;;;5.70;99.90;;;;;;4903665;29;20048;-81
2022/04/10 06:31:55;;;;;;;8.32;1.45;;;5.90;99.90;;;;;;4920429;29;20326;-80
2022/04/10 06:34:21;;;;;;;7.85;1.67;;;6.00;99.90;;;;;;4903924;29;20488;-80
2022/04/10 06:36:47;;;;;;;7.97;1.65;;;6.10;99.90;;;;;;4920384;29;20044;-79
2022/04/10 06:39:13;;;;;;;6.10;1.17;;;6.00;99.90;;;;;;4902392;29;20048;-79
2022/04/10 06:41:39;;;;;;;4.28;1.13;;;6.00;99.90;;;;;;4919573;29;20064;-79
2022/04/10 06:44:05;;;;;;;7.22;1.17;;;5.90;99.90;;;;;;4902861;29;20048;-79
2022/04/10 06:46:30;;;;;;;4.95;0.82;;;5.90;99.90;;;;;;4896171;29;20048;-79
2022/04/10 06:48:56;;;;;;;10.73;1.08;;;5.80;99.90;;;;;;4905217;29;20080;-79
2022/04/10 06:51:22;;;;;;;10.32;1.83;;;5.80;99.90;;;;;;4883291;29;20045;-78
2022/04/10 06:53:48;;;;;;;6.15;1.05;;;5.90;99.90;;;;;;4900386;29;20128;-78
2022/04/10 06:56:15;;;;;;;3.45;0.63;;;6.00;99.90;;;;;;4883007;29;20049;-79
2022/04/10 06:58:41;;;;;;;7.70;1.20;;;6.00;99.90;;;;;;4900042;29;20456;-78
2022/04/10 07:01:07;;;;;;;5.07;0.77;;;6.10;99.90;;;;;;4903258;29;20049;-79
2022/04/10 07:03:33;;;;;;;2.97;0.73;;;6.20;99.90;;;;;;4889953;29;20501;-79
2022/04/10 07:05:59;;;;;;;3.83;1.08;;;6.30;99.90;;;;;;4899890;29;20044;-79
2022/04/10 07:08:25;;;;;;;6.32;1.40;;;6.30;99.90;;;;;;4901052;29;20506;-79
2022/04/10 07:10:50;;;;;;;6.97;1.00;;;6.40;99.90;;;;;;4901580;29;20424;-79
2022/04/10 07:13:17;;;;;;;6.60;1.25;;;6.40;99.90;;;;;;4901034;29;20059;-79
2022/04/10 07:15:44;;;;;;;5.40;1.23;;;6.60;99.90;;;;;;4901000;29;20052;-79
2022/04/10 07:18:10;;;;;;;10.02;2.13;;;6.70;99.90;;;;;;4884240;29;20543;-79
2022/04/10 07:20:35;;;;;;;10.88;1.15;;;6.70;99.90;;;;;;4901166;29;20128;-78
2022/04/10 07:25:45;;;;;;;9.20;2.28;;;6.80;99.90;;;;;;4901472;29;20081;-80
2022/04/10 07:28:11;;;;;;;6.78;1.42;;;6.90;99.90;;;;;;4884601;29;20052;-79
2022/04/10 07:30:37;;;;;;;5.93;1.90;;;7.00;99.90;;;;;;4884194;29;20080;-79
2022/04/10 07:33:02;;;;;;;11.27;2.38;;;7.10;99.90;;;;;;4884218;29;20523;-79
2022/04/10 07:35:28;;;;;;;7.32;1.05;;;7.20;99.90;;;;;;4901150;29;20049;-80
2022/04/10 07:37:54;;;;;;;13.90;2.05;;;7.30;99.90;;;;;;4884312;29;20115;-80
2022/04/10 07:40:19;;;;;;;11.27;1.80;;;7.40;99.90;;;;;;4901259;29;20060;-82
2022/04/10 07:42:45;;;;;;;8.88;1.40;;;7.40;99.90;;;;;;4901050;29;20059;-78
2022/04/10 07:48:01;;;;;;;8.25;1.27;;;7.40;99.90;;;;;;4848806;29;20053;-82
2022/04/10 07:50:31;;;;;;;5.25;1.52;;;7.50;99.90;;;;;;4901157;29;20477;-82
2022/04/10 07:52:57;;;;;;;5.82;1.20;;;7.70;99.90;;;;;;4901223;29;20079;-82
2022/04/10 07:55:25;;;;;;;8.45;1.30;;;7.80;99.90;;;;;;4884408;29;20053;-82
2022/04/10 07:57:51;;;;;;;10.25;1.63;;;7.90;99.90;;;;;;4883843;29;20060;-81
2022/04/10 08:00:17;;;;;;;8.27;1.38;;;7.60;99.90;;;;;;4900805;29;20123;-83
2022/04/10 08:02:48;;;;;;;4.30;1.30;;;7.50;99.90;;;;;;4900868;29;20049;-82
2022/04/10 08:05:14;;;;;;;7.43;0.93;;;7.40;99.90;;;;;;4901264;29;20084;-81
2022/04/10 08:07:41;;;;;;;13.48;1.73;;;7.60;99.90;;;;;;4900034;29;20408;-81
2022/04/10 08:10:07;;;;;;;6.50;1.10;;;7.70;99.90;;;;;;4900710;29;20059;-81
2022/04/10 08:12:33;;;;;;;7.03;1.23;;;7.80;99.90;;;;;;4900690;29;20044;-81
2022/04/10 08:14:58;;;;;;;8.70;1.50;;;7.80;99.90;;;;;;4900268;29;20465;-82
2022/04/10 08:17:24;;;;;;;8.15;1.65;;;7.90;99.90;;;;;;4883956;29;20055;-81
2022/04/10 08:19:50;;;;;;;6.43;1.33;;;7.90;99.90;;;;;;4900661;29;20060;-81
2022/04/10 08:22:23;;;;;;;7.50;2.60;;;8.00;99.90;;;;;;4883535;29;20065;-81
2022/04/10 08:24:48;;;;;;;7.78;1.08;;;8.10;99.90;;;;;;4884149;29;20172;-81
2022/04/10 08:27:14;;;;;;;7.05;0.95;;;8.10;99.90;;;;;;4901084;29;20525;-81
2022/04/10 08:29:40;;;;;;;8.13;1.38;;;8.20;99.90;;;;;;4902330;29;20040;-81
2022/04/10 08:32:06;;;;;;;11.05;1.23;;;8.20;99.90;;;;;;4919078;29;20475;-81
2022/04/10 08:34:31;;;;;;;8.00;1.23;;;8.20;99.90;;;;;;4902753;29;20483;-82
2022/04/10 08:37:04;;;;;;;5.20;1.10;;;8.30;99.90;;;;;;4919310;29;20134;-82
2022/04/10 08:39:33;;;;;;;;;;;8.30;99.90;;;;;;4919525;29;20040;-82
2022/04/10 08:42:04;;;;;;;9.10;1.40;;;8.40;99.90;;;;;;4901871;29;19923;-82
2022/04/10 08:44:31;;;;;;;12.68;1.38;;;8.50;99.90;;;;;;4918332;29;20410;-82
2022/04/10 08:46:58;;;;;;;6.18;1.00;;;8.60;99.90;;;;;;4918718;29;20040;-81
2022/04/10 08:49:34;;;;;;;4.25;1.08;;;8.70;99.90;;;;;;4901697;29;20055;-81
2022/04/10 08:52:00;;;;;;;7.18;1.33;;;8.70;99.90;;;;;;4918707;29;20099;-81
2022/04/10 08:54:27;;;;;;;8.32;1.33;;;8.80;99.90;;;;;;4901414;29;20060;-82
2022/04/10 08:56:54;;;;;;;9.02;1.13;;;8.90;99.90;;;;;;4918208;29;20551;-81
2022/04/10 08:59:21;;;;;;;8.50;1.77;;;8.90;99.90;;;;;;4919597;29;20063;-81
2022/04/10 09:01:52;;;;;;;8.45;1.52;;;9.00;99.90;;;;;;4901674;29;20083;-81
2022/04/10 09:04:18;;;;;;;5.93;1.10;;;9.00;99.90;;;;;;4918804;29;20149;-81
2022/04/10 09:06:59;;;;;;;8.43;1.73;;;9.20;99.90;;;;;;4918313;29;20542;-81
2022/04/10 09:09:26;;;;;;;7.07;1.30;;;9.30;99.90;;;;;;4918790;29;20091;-81
2022/04/10 09:11:56;;;;;;;10.35;2.30;;;9.00;99.90;;;;;;4901638;29;20060;-82
2022/04/10 09:14:34;;;;;;;8.80;1.88;;;8.60;99.90;;;;;;4918998;29;20058;-82
2022/04/10 09:17:20;;;;;;;11.38;1.77;;;8.40;99.90;;;;;;4901389;29;20099;-82
2022/04/10 09:19:53;;;;;;;10.23;2.00;;;8.30;99.90;;;;;;4922099;29;20047;-82
2022/04/10 09:22:30;;;;;;;6.07;1.05;;;8.50;99.90;;;;;;4922475;29;20044;-82
2022/04/10 09:25:16;;;;;;;4.13;0.80;;;8.70;99.90;;;;;;4905191;29;20056;-82
2022/04/10 09:27:49;;;;;;;6.72;2.67;;;8.80;99.90;;;;;;4921095;29;20126;-82
2022/04/10 09:30:19;;;;;;;6.07;0.98;;;8.80;99.90;;;;;;4905474;29;20052;-81
2022/04/10 09:32:52;;;;;;;9.80;0.90;;;8.90;99.90;;;;;;4921956;29;20467;-81
2022/04/10 09:35:21;;;;;;;6.07;1.23;;;9.10;99.90;;;;;;4921232;29;20059;-82
2022/04/10 09:37:54;;;;;;;2.15;1.00;;;9.10;99.90;;;;;;4905151;29;20064;-81
2022/04/10 09:40:31;;;;;;;7.00;0.88;;;9.10;99.90;;;;;;4904738;29;20068;-82
2022/04/10 09:43:06;;;;;;;6.32;1.00;;;9.20;99.90;;;;;;4921832;29;20060;-82
2022/04/10 09:45:40;;;;;;;7.90;1.60;;;9.30;99.90;;;;;;4922220;29;20115;-82
2022/04/10 09:48:29;;;;;;;9.75;1.70;;;9.30;99.90;;;;;;4921539;29;20054;-81
2022/04/10 09:51:02;;;;;;;10.23;1.40;;;9.50;99.90;;;;;;4921858;29;20498;-81
2022/04/10 09:53:29;;;;;;;9.55;1.58;;;9.40;99.90;;;;;;4921765;29;20071;-81
2022/04/10 09:56:06;;;;;;;7.10;1.15;;;9.50;99.90;;;;;;4921187;29;20464;-81
2022/04/10 09:58:32;;;;;;;7.70;1.90;;;9.60;99.90;;;;;;4896968;29;20052;-81
2022/04/10 10:00:59;;;;;;;12.05;1.77;;;9.80;99.90;;;;;;4904629;29;20048;-81
2022/04/10 10:03:28;;;;;;;9.55;1.50;;;9.80;99.90;;;;;;4921721;29;20041;-80
2022/04/10 10:05:55;;;;;;;11.18;2.20;;;9.80;99.90;;;;;;4921162;29;20040;-80
2022/04/10 10:08:23;;;;;;;9.25;1.77;;;9.90;99.90;;;;;;4920445;29;20040;-80
2022/04/10 10:10:49;;;;;;;5.82;1.00;;;9.80;99.90;;;;;;4904418;29;20051;-80
2022/04/10 10:13:15;;;;;;;8.82;1.63;;;9.80;99.90;;;;;;4904756;29;20048;-81
2022/04/10 10:15:43;;;;;;;10.85;1.48;;;10.00;99.90;;;;;;4904215;29;20044;-80
2022/04/10 10:18:13;;;;;;;12.75;1.45;;;9.90;99.90;;;;;;4904654;29;20063;-80
2022/04/10 10:20:42;;;;;;;10.70;1.42;;;10.00;99.90;;;;;;4920009;29;20115;-81
2022/04/10 10:23:10;;;;;;;7.50;1.80;;;10.00;99.90;;;;;;4902777;29;20056;-81
2022/04/10 10:25:58;;;;;;;6.15;1.20;;;10.10;99.90;;;;;;4919888;29;20083;-82
2022/04/10 10:28:39;;;;;;;5.10;0.73;;;10.20;99.90;;;;;;4903045;29;20111;-82
2022/04/10 10:31:29;;;;;;;6.57;1.15;;;10.20;99.90;;;;;;4901680;29;20048;-81
2022/04/10 10:33:58;;;;;;;6.43;1.50;;;10.10;99.90;;;;;;4902017;29;20063;-81
2022/04/10 10:36:27;;;;;;;7.20;1.58;;;10.10;99.90;;;;;;4919445;29;20044;-81
2022/04/10 10:38:55;;;;;;;7.95;1.20;;;10.20;99.90;;;;;;4903228;29;20515;-81
2022/04/10 10:41:20;;;;;;;6.82;1.20;;;10.30;99.90;;;;;;4919106;29;20578;-80
2022/04/10 10:43:47;;;;;;;4.05;1.20;;;10.40;99.90;;;;;;4902450;29;20059;-80
2022/04/10 10:46:32;;;;;;;5.40;1.10;;;10.30;99.90;;;;;;4919238;29;20050;-81
2022/04/10 10:49:16;;;;;;;8.90;1.00;;;10.40;99.90;;;;;;4919461;29;20076;-81
2022/04/10 10:51:48;;;;;;;;;;;10.40;99.90;;;;;;4903477;29;20052;-81
2022/04/10 10:54:21;;;;;;;9.05;1.73;;;10.50;99.90;;;;;;4920365;29;19930;-81
2022/04/10 10:56:50;;;;;;;7.07;1.10;;;10.40;99.90;;;;;;4919443;29;20526;-81
2022/04/10 10:59:34;;;;;;;7.30;1.20;;;10.40;99.90;;;;;;4919495;29;20048;-81
2022/04/10 11:02:20;;;;;;;8.23;1.27;;;10.60;99.90;;;;;;4919437;29;20484;-82
2022/04/10 11:04:50;;;;;;;7.13;0.95;;;10.50;99.90;;;;;;4918474;29;20090;-81
2022/04/10 11:07:19;;;;;;;7.57;1.10;;;10.60;99.90;;;;;;4901863;29;20068;-81
2022/04/10 11:10:00;;;;;;;9.43;1.45;;;10.60;99.90;;;;;;4918991;29;20052;-81
2022/04/10 11:12:33;;;;;;;7.70;1.58;;;10.60;99.90;;;;;;4918857;29;20156;-80
2022/04/10 11:15:25;;;;;;;;;;;10.60;99.90;;;;;;4918889;29;20120;-80
2022/04/10 11:17:52;;;;;;;12.50;1.17;;;10.60;99.90;;;;;;4899004;29;19971;-81
2022/04/10 11:20:23;;;;;;;12.32;1.25;;;10.50;99.90;;;;;;4902609;29;20503;-80
2022/04/10 11:22:49;;;;;;;5.78;0.90;;;10.60;99.90;;;;;;4903363;29;20056;-80
2022/04/10 11:25:19;;;;;;;3.30;0.60;;;10.70;99.90;;;;;;4919227;29;20125;-79
2022/04/10 11:27:53;;;;;;;7.70;1.20;;;10.80;99.90;;;;;;4901447;29;20107;-81
2022/04/10 11:30:29;;;;;;;7.40;1.05;;;10.80;99.90;;;;;;4902259;29;20080;-81
2022/04/10 11:33:03;;;;;;;5.65;1.48;;;10.80;99.90;;;;;;4919280;29;20052;-81
2022/04/10 11:35:33;;;;;;;4.68;1.45;;;10.90;99.90;;;;;;4901229;29;20448;-80
2022/04/10 11:37:59;;;;;;;7.53;0.90;;;10.80;99.90;;;;;;4919077;29;20048;-81
2022/04/10 11:40:30;;;;;;;4.75;0.95;;;10.80;99.90;;;;;;4918271;29;20055;-80
2022/04/10 11:42:58;;;;;;;5.20;0.70;;;10.50;99.90;;;;;;4900575;29;20068;-80
2022/04/10 11:45:31;;;;;;;5.05;1.05;;;10.60;99.90;;;;;;4918154;29;20036;-80
2022/04/10 11:47:58;;;;;;;5.20;1.00;;;10.60;99.90;;;;;;4918530;29;20052;-80
2022/04/10 11:50:26;;;;;;;2.97;0.65;;;10.70;99.90;;;;;;4918516;29;20087;-80
2022/04/10 11:53:03;;;;;;;4.68;0.90;;;10.70;99.90;;;;;;4918439;29;20040;-80
2022/04/10 11:55:36;;;;;;;4.00;0.63;;;10.80;99.90;;;;;;4918633;29;20467;-80
2022/04/10 11:58:11;;;;;;;;;;;10.70;99.90;;;;;;4919145;29;20052;-80
2022/04/10 12:00:37;;;;;;;6.60;0.90;;;10.70;99.90;;;;;;4901735;29;19966;-80
2022/04/10 12:03:03;;;;;;;5.68;0.80;;;10.70;99.90;;;;;;4917747;29;20056;-80
2022/04/10 12:05:30;;;;;;;4.60;0.70;;;10.80;99.90;;;;;;4918549;29;20054;-80
2022/04/10 12:08:04;;;;;;;3.80;0.90;;;10.70;99.90;;;;;;4918886;29;20580;-80
2022/04/10 12:10:31;;;;;;;6.47;0.70;;;10.70;99.90;;;;;;4901713;29;20064;-80
2022/04/10 12:12:57;;;;;;;4.95;1.20;;;10.70;99.90;;;;;;4918268;29;20086;-80
2022/04/10 12:15:23;;;;;;;5.13;0.82;;;10.60;99.90;;;;;;4918235;29;20044;-80
2022/04/10 12:18:02;;;;;;;8.85;1.05;;;10.60;99.90;;;;;;4918619;29;20072;-80
2022/04/10 12:20:28;;;;;;;4.88;0.70;;;10.70;99.90;;;;;;4918170;29;20472;-80
2022/04/10 12:22:54;;;;;;;4.63;0.70;;;10.70;99.90;;;;;;4900778;29;20536;-80
2022/04/10 12:25:20;;;;;;;4.72;1.00;;;10.50;99.90;;;;;;4917740;29;20052;-80
2022/04/10 12:27:47;;;;;;;4.90;0.93;;;10.60;99.90;;;;;;4917961;29;20096;-79
2022/04/10 12:30:14;;;;;;;5.38;0.80;;;10.70;99.90;;;;;;4918557;29;20107;-80
2022/04/10 12:32:40;;;;;;;3.78;0.90;;;10.60;99.90;;;;;;4918363;29;20519;-80
2022/04/10 12:35:08;;;;;;;4.60;0.65;;;10.60;99.90;;;;;;4916628;29;20060;-80
2022/04/10 12:37:34;;;;;;;4.97;0.90;;;10.60;99.90;;;;;;4900094;29;20088;-80
2022/04/10 12:40:01;;;;;;;6.25;1.42;;;10.60;99.90;;;;;;4913461;29;20083;-80
2022/04/10 12:42:37;;;;;;;4.85;0.70;;;10.50;99.90;;;;;;4891744;29;20052;-80
2022/04/10 12:45:09;;;;;;;4.28;0.90;;;10.40;99.90;;;;;;4903408;29;20095;-80
2022/04/10 12:47:46;;;;;;;6.75;1.33;;;10.60;99.90;;;;;;4881529;29;20150;-80
2022/04/10 12:50:19;;;;;;;5.07;0.90;;;10.50;99.90;;;;;;4880601;29;20047;-82
2022/04/10 12:52:48;;;;;;;5.25;0.95;;;10.50;99.90;;;;;;4896173;29;20044;-79
2022/04/10 12:55:16;;;;;;;6.20;0.73;;;10.50;99.90;;;;;;4880800;29;20088;-80
2022/04/10 12:57:43;;;;;;;8.85;1.10;;;10.70;99.90;;;;;;4898330;29;20044;-80
2022/04/10 13:00:32;;;;;;;4.68;1.10;;;10.70;99.90;;;;;;4881241;29;20060;-80
2022/04/10 13:02:59;;;;;;;6.68;1.55;;;10.50;99.90;;;;;;4898477;29;20056;-80